sensor_id;sensor_type;location;lat;lon;timestamp;P1;durP1;ratioP1;P2;durP2;ratioP2
70576;SDS011;58138;43.138;24.702;2022-08-01T00:01:34;1.77;;;1.65;;
70576;SDS011;58138;43.138;24.702;2022-08-01T00:04:00;2.85;;;1.85;;
70576;SDS011;58138;43.138;24.702;2022-08-01T00:06:25;2.30;;;2.08;;
70576;SDS011;58138;43.138;24.702;2022-08-01T00:08:51;4.60;;;2.35;;
70576;SDS011;58138;43.138;24.702;2022-08-01T00:11:16;2.95;;;2.10;;
70576;SDS011;58138;43.138;24.702;2022-08-01T00:13:42;1.80;;;1.70;;
70576;SDS011;58138;43.138;24.702;2022-08-01T00:16:07;2.92;;;1.63;;
70576;SDS011;58138;43.138;24.702;2022-08-01T00:18:33;3.03;;;1.85;;
70576;SDS011;58138;43.138;24.702;2022-08-01T00:21:00;2.95;;;2.10;;
70576;SDS011;58138;43.138;24.702;2022-08-01T00:23:27;2.55;;;1.85;;
70576;SDS011;58138;43.138;24.702;2022-08-01T00:25:52;2.63;;;1.85;;
70576;SDS011;58138;43.138;24.702;2022-08-01T00:28:18;5.03;;;1.98;;
70576;SDS011;58138;43.138;24.702;2022-08-01T00:30:43;5.57;;;2.13;;
70576;SDS011;58138;43.138;24.702;2022-08-01T00:33:09;2.10;;;1.77;;
70576;SDS011;58138;43.138;24.702;2022-08-01T00:35:34;9.77;;;2.10;;
70576;SDS011;58138;43.138;24.702;2022-08-01T00:38:00;2.92;;;1.70;;
70576;SDS011;58138;43.138;24.702;2022-08-01T00:40:25;2.70;;;1.80;;
70576;SDS011;58138;43.138;24.702;2022-08-01T00:42:51;2.38;;;1.40;;
70576;SDS011;58138;43.138;24.702;2022-08-01T00:45:16;7.95;;;1.80;;
70576;SDS011;58138;43.138;24.702;2022-08-01T00:47:42;4.55;;;1.65;;
70576;SDS011;58138;43.138;24.702;2022-08-01T00:50:07;5.30;;;1.40;;
70576;SDS011;58138;43.138;24.702;2022-08-01T00:52:34;1.85;;;1.58;;
70576;SDS011;58138;43.138;24.702;2022-08-01T00:55:00;2.70;;;1.38;;
70576;SDS011;58138;43.138;24.702;2022-08-01T00:57:25;4.32;;;1.95;;
70576;SDS011;58138;43.138;24.702;2022-08-01T00:59:51;4.07;;;1.40;;
70576;SDS011;58138;43.138;24.702;2022-08-01T01:02:17;1.85;;;1.75;;
70576;SDS011;58138;43.138;24.702;2022-08-01T01:04:43;3.00;;;1.50;;
70576;SDS011;58138;43.138;24.702;2022-08-01T01:10:05;2.00;;;1.55;;
70576;SDS011;58138;43.138;24.702;2022-08-01T01:12:54;4.10;;;2.05;;
70576;SDS011;58138;43.138;24.702;2022-08-01T01:15:31;1.98;;;1.75;;
70576;SDS011;58138;43.138;24.702;2022-08-01T01:18:23;2.88;;;1.80;;
70576;SDS011;58138;43.138;24.702;2022-08-01T01:24:04;1.73;;;1.58;;
70576;SDS011;58138;43.138;24.702;2022-08-01T01:29:39;2.10;;;1.45;;
70576;SDS011;58138;43.138;24.702;2022-08-01T01:32:12;1.75;;;1.65;;
70576;SDS011;58138;43.138;24.702;2022-08-01T01:34:40;3.45;;;1.63;;
70576;SDS011;58138;43.138;24.702;2022-08-01T01:37:09;1.50;;;1.33;;
70576;SDS011;58138;43.138;24.702;2022-08-01T01:39:38;1.30;;;1.20;;
70576;SDS011;58138;43.138;24.702;2022-08-01T01:42:06;2.80;;;1.85;;
70576;SDS011;58138;43.138;24.702;2022-08-01T01:44:32;2.38;;;1.83;;
70576;SDS011;58138;43.138;24.702;2022-08-01T01:46:59;2.28;;;1.60;;
70576;SDS011;58138;43.138;24.702;2022-08-01T01:49:26;2.65;;;1.85;;
70576;SDS011;58138;43.138;24.702;2022-08-01T01:51:53;2.40;;;1.25;;
70576;SDS011;58138;43.138;24.702;2022-08-01T01:54:19;2.10;;;1.45;;
70576;SDS011;58138;43.138;24.702;2022-08-01T01:56:45;3.55;;;1.80;;
70576;SDS011;58138;43.138;24.702;2022-08-01T01:59:15;3.58;;;1.63;;
70576;SDS011;58138;43.138;24.702;2022-08-01T02:01:44;4.65;;;1.67;;
70576;SDS011;58138;43.138;24.702;2022-08-01T02:04:12;6.22;;;1.60;;
70576;SDS011;58138;43.138;24.702;2022-08-01T02:06:37;4.15;;;1.50;;
70576;SDS011;58138;43.138;24.702;2022-08-01T02:09:03;3.00;;;1.50;;
70576;SDS011;58138;43.138;24.702;2022-08-01T02:11:30;3.83;;;1.52;;
70576;SDS011;58138;43.138;24.702;2022-08-01T02:13:57;2.38;;;1.70;;
70576;SDS011;58138;43.138;24.702;2022-08-01T02:16:26;6.07;;;1.80;;
70576;SDS011;58138;43.138;24.702;2022-08-01T02:18:54;2.90;;;1.60;;
70576;SDS011;58138;43.138;24.702;2022-08-01T02:21:23;2.35;;;1.60;;
70576;SDS011;58138;43.138;24.702;2022-08-01T02:23:52;3.33;;;1.75;;
70576;SDS011;58138;43.138;24.702;2022-08-01T02:26:19;2.17;;;1.50;;
70576;SDS011;58138;43.138;24.702;2022-08-01T02:28:51;2.72;;;1.88;;
70576;SDS011;58138;43.138;24.702;2022-08-01T02:31:20;1.70;;;1.33;;
70576;SDS011;58138;43.138;24.702;2022-08-01T02:33:52;6.05;;;2.53;;
70576;SDS011;58138;43.138;24.702;2022-08-01T02:36:21;1.60;;;1.50;;
70576;SDS011;58138;43.138;24.702;2022-08-01T02:38:49;4.43;;;1.50;;
70576;SDS011;58138;43.138;24.702;2022-08-01T02:41:17;7.35;;;1.45;;
70576;SDS011;58138;43.138;24.702;2022-08-01T02:43:45;3.35;;;1.60;;
70576;SDS011;58138;43.138;24.702;2022-08-01T02:46:15;1.60;;;1.50;;
70576;SDS011;58138;43.138;24.702;2022-08-01T02:48:43;2.17;;;1.52;;
70576;SDS011;58138;43.138;24.702;2022-08-01T02:51:10;3.05;;;1.75;;
70576;SDS011;58138;43.138;24.702;2022-08-01T02:53:36;2.75;;;1.38;;
70576;SDS011;58138;43.138;24.702;2022-08-01T02:56:04;3.67;;;1.95;;
70576;SDS011;58138;43.138;24.702;2022-08-01T02:58:30;3.30;;;1.80;;
70576;SDS011;58138;43.138;24.702;2022-08-01T03:00:56;1.70;;;1.60;;
70576;SDS011;58138;43.138;24.702;2022-08-01T03:03:22;3.38;;;1.60;;
70576;SDS011;58138;43.138;24.702;2022-08-01T03:05:49;2.20;;;1.25;;
70576;SDS011;58138;43.138;24.702;2022-08-01T03:08:15;1.60;;;1.50;;
70576;SDS011;58138;43.138;24.702;2022-08-01T03:10:41;3.80;;;1.70;;
70576;SDS011;58138;43.138;24.702;2022-08-01T03:13:08;1.92;;;1.77;;
70576;SDS011;58138;43.138;24.702;2022-08-01T03:15:35;4.88;;;1.95;;
70576;SDS011;58138;43.138;24.702;2022-08-01T03:18:03;2.60;;;1.60;;
70576;SDS011;58138;43.138;24.702;2022-08-01T03:20:31;1.60;;;1.50;;
70576;SDS011;58138;43.138;24.702;2022-08-01T03:22:58;8.07;;;1.80;;
70576;SDS011;58138;43.138;24.702;2022-08-01T03:25:25;1.92;;;1.73;;
70576;SDS011;58138;43.138;24.702;2022-08-01T03:27:55;2.67;;;2.17;;
70576;SDS011;58138;43.138;24.702;2022-08-01T03:30:22;4.82;;;2.95;;
70576;SDS011;58138;43.138;24.702;2022-08-01T03:32:48;3.03;;;1.80;;
70576;SDS011;58138;43.138;24.702;2022-08-01T03:35:14;2.75;;;1.90;;
70576;SDS011;58138;43.138;24.702;2022-08-01T03:37:46;2.42;;;1.63;;
70576;SDS011;58138;43.138;24.702;2022-08-01T03:43:07;2.50;;;1.80;;
70576;SDS011;58138;43.138;24.702;2022-08-01T03:45:35;2.70;;;2.10;;
70576;SDS011;58138;43.138;24.702;2022-08-01T03:48:05;3.85;;;2.25;;
70576;SDS011;58138;43.138;24.702;2022-08-01T03:50:34;1.70;;;1.60;;
70576;SDS011;58138;43.138;24.702;2022-08-01T03:53:01;2.90;;;2.38;;
70576;SDS011;58138;43.138;24.702;2022-08-01T03:55:27;2.53;;;2.10;;
70576;SDS011;58138;43.138;24.702;2022-08-01T03:57:53;4.25;;;2.03;;
70576;SDS011;58138;43.138;24.702;2022-08-01T04:00:19;3.85;;;2.42;;
70576;SDS011;58138;43.138;24.702;2022-08-01T04:02:48;4.20;;;2.00;;
70576;SDS011;58138;43.138;24.702;2022-08-01T04:05:14;6.13;;;2.13;;
70576;SDS011;58138;43.138;24.702;2022-08-01T04:07:44;2.28;;;1.80;;
70576;SDS011;58138;43.138;24.702;2022-08-01T04:10:11;7.00;;;1.58;;
70576;SDS011;58138;43.138;24.702;2022-08-01T04:12:37;3.88;;;1.80;;
70576;SDS011;58138;43.138;24.702;2022-08-01T04:15:03;1.92;;;1.63;;
70576;SDS011;58138;43.138;24.702;2022-08-01T04:17:29;1.67;;;1.58;;
70576;SDS011;58138;43.138;24.702;2022-08-01T04:19:55;2.05;;;1.73;;
70576;SDS011;58138;43.138;24.702;2022-08-01T04:22:20;4.53;;;1.88;;
70576;SDS011;58138;43.138;24.702;2022-08-01T04:24:47;2.58;;;1.40;;
70576;SDS011;58138;43.138;24.702;2022-08-01T04:27:14;3.63;;;1.70;;
70576;SDS011;58138;43.138;24.702;2022-08-01T04:29:43;1.63;;;1.52;;
70576;SDS011;58138;43.138;24.702;2022-08-01T04:32:10;1.88;;;1.70;;
70576;SDS011;58138;43.138;24.702;2022-08-01T04:34:37;4.95;;;1.80;;
70576;SDS011;58138;43.138;24.702;2022-08-01T04:37:05;1.42;;;1.30;;
70576;SDS011;58138;43.138;24.702;2022-08-01T04:39:33;4.38;;;1.65;;
70576;SDS011;58138;43.138;24.702;2022-08-01T04:42:01;4.50;;;1.80;;
70576;SDS011;58138;43.138;24.702;2022-08-01T04:44:29;3.60;;;1.60;;
70576;SDS011;58138;43.138;24.702;2022-08-01T04:46:57;2.50;;;1.65;;
70576;SDS011;58138;43.138;24.702;2022-08-01T04:49:28;5.05;;;2.00;;
70576;SDS011;58138;43.138;24.702;2022-08-01T04:51:56;1.65;;;1.50;;
70576;SDS011;58138;43.138;24.702;2022-08-01T04:54:28;3.15;;;1.80;;
70576;SDS011;58138;43.138;24.702;2022-08-01T04:56:55;4.88;;;1.90;;
70576;SDS011;58138;43.138;24.702;2022-08-01T04:59:25;3.47;;;1.70;;
70576;SDS011;58138;43.138;24.702;2022-08-01T05:02:05;5.15;;;1.60;;
70576;SDS011;58138;43.138;24.702;2022-08-01T05:04:32;6.35;;;1.40;;
70576;SDS011;58138;43.138;24.702;2022-08-01T05:06:58;2.45;;;1.70;;
70576;SDS011;58138;43.138;24.702;2022-08-01T05:09:23;11.18;;;1.80;;
70576;SDS011;58138;43.138;24.702;2022-08-01T05:11:49;1.65;;;1.52;;
70576;SDS011;58138;43.138;24.702;2022-08-01T05:14:14;3.72;;;1.60;;
70576;SDS011;58138;43.138;24.702;2022-08-01T05:16:40;2.83;;;1.55;;
70576;SDS011;58138;43.138;24.702;2022-08-01T05:19:06;3.55;;;1.70;;
70576;SDS011;58138;43.138;24.702;2022-08-01T05:21:33;3.17;;;1.60;;
70576;SDS011;58138;43.138;24.702;2022-08-01T05:23:59;1.80;;;1.70;;
70576;SDS011;58138;43.138;24.702;2022-08-01T05:26:24;2.72;;;1.65;;
70576;SDS011;58138;43.138;24.702;2022-08-01T05:28:49;4.32;;;1.60;;
70576;SDS011;58138;43.138;24.702;2022-08-01T05:31:15;2.47;;;1.50;;
70576;SDS011;58138;43.138;24.702;2022-08-01T05:33:41;4.82;;;1.50;;
70576;SDS011;58138;43.138;24.702;2022-08-01T05:36:06;2.33;;;1.50;;
70576;SDS011;58138;43.138;24.702;2022-08-01T05:38:31;2.10;;;1.73;;
70576;SDS011;58138;43.138;24.702;2022-08-01T05:40:57;1.92;;;1.50;;
70576;SDS011;58138;43.138;24.702;2022-08-01T05:43:23;1.70;;;1.60;;
70576;SDS011;58138;43.138;24.702;2022-08-01T05:45:48;3.97;;;1.40;;
70576;SDS011;58138;43.138;24.702;2022-08-01T05:48:14;1.90;;;1.70;;
70576;SDS011;58138;43.138;24.702;2022-08-01T05:50:39;4.63;;;1.80;;
70576;SDS011;58138;43.138;24.702;2022-08-01T05:53:04;2.92;;;1.55;;
70576;SDS011;58138;43.138;24.702;2022-08-01T05:55:30;3.53;;;1.70;;
70576;SDS011;58138;43.138;24.702;2022-08-01T05:57:55;2.17;;;1.83;;
70576;SDS011;58138;43.138;24.702;2022-08-01T06:00:21;3.97;;;1.60;;
70576;SDS011;58138;43.138;24.702;2022-08-01T06:02:46;3.15;;;1.40;;
70576;SDS011;58138;43.138;24.702;2022-08-01T06:05:12;1.77;;;1.60;;
70576;SDS011;58138;43.138;24.702;2022-08-01T06:07:37;5.65;;;1.92;;
70576;SDS011;58138;43.138;24.702;2022-08-01T06:10:04;2.50;;;1.60;;
70576;SDS011;58138;43.138;24.702;2022-08-01T06:12:32;3.65;;;1.52;;
70576;SDS011;58138;43.138;24.702;2022-08-01T06:14:58;1.50;;;1.20;;
70576;SDS011;58138;43.138;24.702;2022-08-01T06:17:23;4.63;;;1.40;;
70576;SDS011;58138;43.138;24.702;2022-08-01T06:19:49;2.55;;;1.65;;
70576;SDS011;58138;43.138;24.702;2022-08-01T06:22:14;4.28;;;1.70;;
70576;SDS011;58138;43.138;24.702;2022-08-01T06:24:40;9.25;;;2.00;;
70576;SDS011;58138;43.138;24.702;2022-08-01T06:27:06;2.90;;;1.60;;
70576;SDS011;58138;43.138;24.702;2022-08-01T06:29:31;3.50;;;1.70;;
70576;SDS011;58138;43.138;24.702;2022-08-01T06:31:57;4.13;;;1.80;;
70576;SDS011;58138;43.138;24.702;2022-08-01T06:34:23;5.32;;;2.00;;
70576;SDS011;58138;43.138;24.702;2022-08-01T06:36:48;2.17;;;1.95;;
70576;SDS011;58138;43.138;24.702;2022-08-01T06:39:14;2.42;;;1.90;;
70576;SDS011;58138;43.138;24.702;2022-08-01T06:41:39;5.65;;;1.75;;
70576;SDS011;58138;43.138;24.702;2022-08-01T06:44:06;4.68;;;1.80;;
70576;SDS011;58138;43.138;24.702;2022-08-01T06:46:32;1.90;;;1.48;;
70576;SDS011;58138;43.138;24.702;2022-08-01T06:48:58;6.82;;;1.50;;
70576;SDS011;58138;43.138;24.702;2022-08-01T06:51:23;5.05;;;1.58;;
70576;SDS011;58138;43.138;24.702;2022-08-01T06:53:49;5.63;;;1.65;;
70576;SDS011;58138;43.138;24.702;2022-08-01T06:56:14;3.45;;;1.50;;
70576;SDS011;58138;43.138;24.702;2022-08-01T06:58:39;6.72;;;1.60;;
70576;SDS011;58138;43.138;24.702;2022-08-01T07:01:05;4.80;;;1.60;;
70576;SDS011;58138;43.138;24.702;2022-08-01T07:03:32;2.30;;;1.30;;
70576;SDS011;58138;43.138;24.702;2022-08-01T07:05:58;2.95;;;1.42;;
70576;SDS011;58138;43.138;24.702;2022-08-01T07:08:23;3.58;;;1.70;;
70576;SDS011;58138;43.138;24.702;2022-08-01T07:10:49;3.85;;;1.58;;
70576;SDS011;58138;43.138;24.702;2022-08-01T07:13:14;2.50;;;1.30;;
70576;SDS011;58138;43.138;24.702;2022-08-01T07:15:46;3.92;;;1.60;;
70576;SDS011;58138;43.138;24.702;2022-08-01T07:18:12;6.32;;;1.77;;
70576;SDS011;58138;43.138;24.702;2022-08-01T07:20:37;4.50;;;1.33;;
70576;SDS011;58138;43.138;24.702;2022-08-01T07:23:03;4.28;;;1.30;;
70576;SDS011;58138;43.138;24.702;2022-08-01T07:25:29;1.95;;;1.20;;
70576;SDS011;58138;43.138;24.702;2022-08-01T07:27:54;3.47;;;1.80;;
70576;SDS011;58138;43.138;24.702;2022-08-01T07:30:20;5.35;;;2.22;;
70576;SDS011;58138;43.138;24.702;2022-08-01T07:32:45;5.53;;;1.55;;
70576;SDS011;58138;43.138;24.702;2022-08-01T07:35:11;4.47;;;1.45;;
70576;SDS011;58138;43.138;24.702;2022-08-01T07:37:36;2.65;;;1.70;;
70576;SDS011;58138;43.138;24.702;2022-08-01T07:40:02;4.25;;;1.30;;
70576;SDS011;58138;43.138;24.702;2022-08-01T07:42:30;3.53;;;1.35;;
70576;SDS011;58138;43.138;24.702;2022-08-01T07:44:55;2.80;;;1.40;;
70576;SDS011;58138;43.138;24.702;2022-08-01T07:47:24;2.55;;;1.20;;
70576;SDS011;58138;43.138;24.702;2022-08-01T07:49:50;1.95;;;1.30;;
70576;SDS011;58138;43.138;24.702;2022-08-01T07:52:16;4.18;;;1.30;;
70576;SDS011;58138;43.138;24.702;2022-08-01T07:54:41;3.63;;;1.40;;
70576;SDS011;58138;43.138;24.702;2022-08-01T07:57:07;1.98;;;1.40;;
70576;SDS011;58138;43.138;24.702;2022-08-01T07:59:39;1.90;;;1.20;;
70576;SDS011;58138;43.138;24.702;2022-08-01T08:02:10;1.20;;;1.10;;
70576;SDS011;58138;43.138;24.702;2022-08-01T08:04:36;3.58;;;1.38;;
70576;SDS011;58138;43.138;24.702;2022-08-01T08:07:01;2.72;;;1.15;;
70576;SDS011;58138;43.138;24.702;2022-08-01T08:09:27;3.72;;;0.95;;
70576;SDS011;58138;43.138;24.702;2022-08-01T08:11:52;2.50;;;1.00;;
70576;SDS011;58138;43.138;24.702;2022-08-01T08:14:18;1.63;;;1.23;;
70576;SDS011;58138;43.138;24.702;2022-08-01T08:16:44;6.38;;;1.20;;
70576;SDS011;58138;43.138;24.702;2022-08-01T08:19:10;3.80;;;1.10;;
70576;SDS011;58138;43.138;24.702;2022-08-01T08:21:36;1.33;;;1.17;;
70576;SDS011;58138;43.138;24.702;2022-08-01T08:24:02;4.40;;;1.00;;
70576;SDS011;58138;43.138;24.702;2022-08-01T08:26:48;1.63;;;0.95;;
70576;SDS011;58138;43.138;24.702;2022-08-01T08:29:15;1.58;;;0.88;;
70576;SDS011;58138;43.138;24.702;2022-08-01T08:31:41;1.98;;;1.45;;
70576;SDS011;58138;43.138;24.702;2022-08-01T08:34:07;1.65;;;0.93;;
70576;SDS011;58138;43.138;24.702;2022-08-01T08:36:32;2.42;;;0.80;;
70576;SDS011;58138;43.138;24.702;2022-08-01T08:38:58;0.88;;;0.88;;
70576;SDS011;58138;43.138;24.702;2022-08-01T08:41:25;1.50;;;1.10;;
70576;SDS011;58138;43.138;24.702;2022-08-01T08:43:51;1.52;;;0.98;;
70576;SDS011;58138;43.138;24.702;2022-08-01T08:46:17;2.95;;;0.90;;
70576;SDS011;58138;43.138;24.702;2022-08-01T08:48:43;2.03;;;1.00;;
70576;SDS011;58138;43.138;24.702;2022-08-01T08:51:10;1.55;;;0.90;;
70576;SDS011;58138;43.138;24.702;2022-08-01T08:53:36;2.45;;;0.93;;
70576;SDS011;58138;43.138;24.702;2022-08-01T08:56:03;1.90;;;0.70;;
70576;SDS011;58138;43.138;24.702;2022-08-01T08:58:35;1.38;;;0.80;;
70576;SDS011;58138;43.138;24.702;2022-08-01T09:01:04;2.63;;;1.00;;
70576;SDS011;58138;43.138;24.702;2022-08-01T09:03:32;4.13;;;1.08;;
70576;SDS011;58138;43.138;24.702;2022-08-01T09:05:58;1.35;;;1.25;;
70576;SDS011;58138;43.138;24.702;2022-08-01T09:08:23;1.88;;;1.10;;
70576;SDS011;58138;43.138;24.702;2022-08-01T09:10:49;1.02;;;0.90;;
70576;SDS011;58138;43.138;24.702;2022-08-01T09:13:14;1.73;;;1.13;;
70576;SDS011;58138;43.138;24.702;2022-08-01T09:15:47;3.13;;;1.10;;
70576;SDS011;58138;43.138;24.702;2022-08-01T09:23:34;2.63;;;1.20;;
70576;SDS011;58138;43.138;24.702;2022-08-01T09:26:04;3.50;;;1.30;;
70576;SDS011;58138;43.138;24.702;2022-08-01T09:28:30;2.15;;;1.20;;
70576;SDS011;58138;43.138;24.702;2022-08-01T09:30:57;3.20;;;1.38;;
70576;SDS011;58138;43.138;24.702;2022-08-01T09:33:22;2.83;;;1.60;;
70576;SDS011;58138;43.138;24.702;2022-08-01T09:35:55;0.90;;;0.90;;
70576;SDS011;58138;43.138;24.702;2022-08-01T09:38:22;4.97;;;1.42;;
70576;SDS011;58138;43.138;24.702;2022-08-01T09:40:57;1.75;;;1.13;;
70576;SDS011;58138;43.138;24.702;2022-08-01T09:43:26;2.20;;;0.80;;
70576;SDS011;58138;43.138;24.702;2022-08-01T09:45:54;0.80;;;0.80;;
70576;SDS011;58138;43.138;24.702;2022-08-01T09:48:21;3.83;;;1.00;;
70576;SDS011;58138;43.138;24.702;2022-08-01T09:50:48;2.10;;;0.90;;
70576;SDS011;58138;43.138;24.702;2022-08-01T09:53:15;4.03;;;1.10;;
70576;SDS011;58138;43.138;24.702;2022-08-01T09:55:41;2.78;;;1.02;;
70576;SDS011;58138;43.138;24.702;2022-08-01T09:58:08;1.77;;;1.15;;
70576;SDS011;58138;43.138;24.702;2022-08-01T10:00:35;0.95;;;0.95;;
70576;SDS011;58138;43.138;24.702;2022-08-01T10:05:45;4.28;;;1.00;;
70576;SDS011;58138;43.138;24.702;2022-08-01T10:08:10;0.98;;;0.90;;
70576;SDS011;58138;43.138;24.702;2022-08-01T10:10:37;1.85;;;0.80;;
70576;SDS011;58138;43.138;24.702;2022-08-01T10:13:03;3.00;;;0.90;;
70576;SDS011;58138;43.138;24.702;2022-08-01T10:15:29;2.15;;;0.80;;
70576;SDS011;58138;43.138;24.702;2022-08-01T10:17:56;2.45;;;0.90;;
70576;SDS011;58138;43.138;24.702;2022-08-01T10:20:27;1.45;;;0.80;;
70576;SDS011;58138;43.138;24.702;2022-08-01T10:22:55;2.05;;;0.90;;
70576;SDS011;58138;43.138;24.702;2022-08-01T10:25:21;2.20;;;0.90;;
70576;SDS011;58138;43.138;24.702;2022-08-01T10:27:50;2.15;;;0.88;;
70576;SDS011;58138;43.138;24.702;2022-08-01T10:30:19;0.90;;;0.90;;
70576;SDS011;58138;43.138;24.702;2022-08-01T10:32:46;2.78;;;1.00;;
70576;SDS011;58138;43.138;24.702;2022-08-01T10:35:12;1.00;;;0.80;;
70576;SDS011;58138;43.138;24.702;2022-08-01T10:37:42;3.60;;;0.75;;
70576;SDS011;58138;43.138;24.702;2022-08-01T10:40:08;1.50;;;0.80;;
70576;SDS011;58138;43.138;24.702;2022-08-01T10:42:34;1.25;;;0.93;;
70576;SDS011;58138;43.138;24.702;2022-08-01T10:45:00;0.82;;;0.80;;
70576;SDS011;58138;43.138;24.702;2022-08-01T10:48:29;4.45;;;1.00;;
70576;SDS011;58138;43.138;24.702;2022-08-01T10:50:34;2.67;;;1.00;;
70576;SDS011;58138;43.138;24.702;2022-08-01T10:53:16;2.20;;;0.93;;
70576;SDS011;58138;43.138;24.702;2022-08-01T10:58:11;1.73;;;0.90;;
70576;SDS011;58138;43.138;24.702;2022-08-01T11:00:37;1.98;;;0.65;;
70576;SDS011;58138;43.138;24.702;2022-08-01T11:03:03;2.33;;;0.98;;
70576;SDS011;58138;43.138;24.702;2022-08-01T11:05:35;0.68;;;0.65;;
70576;SDS011;58138;43.138;24.702;2022-08-01T11:08:06;3.38;;;0.90;;
70576;SDS011;58138;43.138;24.702;2022-08-01T11:10:39;1.23;;;0.70;;
70576;SDS011;58138;43.138;24.702;2022-08-01T11:13:07;2.55;;;0.90;;
70576;SDS011;58138;43.138;24.702;2022-08-01T11:15:36;0.98;;;0.73;;
70576;SDS011;58138;43.138;24.702;2022-08-01T11:18:47;1.52;;;0.85;;
70576;SDS011;58138;43.138;24.702;2022-08-01T11:20:57;2.67;;;0.65;;
70576;SDS011;58138;43.138;24.702;2022-08-01T11:23:26;1.83;;;0.80;;
70576;SDS011;58138;43.138;24.702;2022-08-01T11:28:21;1.70;;;0.75;;
70576;SDS011;58138;43.138;24.702;2022-08-01T11:30:52;1.23;;;0.70;;
70576;SDS011;58138;43.138;24.702;2022-08-01T11:38:40;1.17;;;0.80;;
70576;SDS011;58138;43.138;24.702;2022-08-01T11:41:25;1.38;;;0.90;;
70576;SDS011;58138;43.138;24.702;2022-08-01T11:44:05;1.75;;;0.85;;
70576;SDS011;58138;43.138;24.702;2022-08-01T11:46:48;1.63;;;0.63;;
70576;SDS011;58138;43.138;24.702;2022-08-01T11:49:28;1.45;;;0.93;;
70576;SDS011;58138;43.138;24.702;2022-08-01T11:54:37;0.85;;;0.80;;
70576;SDS011;58138;43.138;24.702;2022-08-01T11:57:07;0.77;;;0.65;;
70576;SDS011;58138;43.138;24.702;2022-08-01T11:59:44;3.05;;;0.90;;
70576;SDS011;58138;43.138;24.702;2022-08-01T12:02:19;3.40;;;1.02;;
70576;SDS011;58138;43.138;24.702;2022-08-01T12:07:12;3.05;;;0.80;;
70576;SDS011;58138;43.138;24.702;2022-08-01T12:09:38;3.83;;;0.90;;
70576;SDS011;58138;43.138;24.702;2022-08-01T12:12:04;4.70;;;1.00;;
70576;SDS011;58138;43.138;24.702;2022-08-01T12:14:29;1.60;;;1.20;;
70576;SDS011;58138;43.138;24.702;2022-08-01T12:16:55;4.03;;;2.10;;
70576;SDS011;58138;43.138;24.702;2022-08-01T12:19:22;3.90;;;1.20;;
70576;SDS011;58138;43.138;24.702;2022-08-01T12:24:38;0.77;;;0.70;;
70576;SDS011;58138;43.138;24.702;2022-08-01T12:27:04;0.82;;;0.52;;
70576;SDS011;58138;43.138;24.702;2022-08-01T12:32:20;1.52;;;0.82;;
70576;SDS011;58138;43.138;24.702;2022-08-01T12:35:07;3.38;;;0.80;;
70576;SDS011;58138;43.138;24.702;2022-08-01T12:37:35;2.42;;;1.77;;
70576;SDS011;58138;43.138;24.702;2022-08-01T12:40:17;1.17;;;0.70;;
70576;SDS011;58138;43.138;24.702;2022-08-01T12:42:51;2.42;;;1.33;;
70576;SDS011;58138;43.138;24.702;2022-08-01T12:45:27;4.40;;;1.05;;
70576;SDS011;58138;43.138;24.702;2022-08-01T12:47:54;2.15;;;1.10;;
70576;SDS011;58138;43.138;24.702;2022-08-01T12:50:22;2.03;;;0.90;;
70576;SDS011;58138;43.138;24.702;2022-08-01T12:52:49;1.10;;;0.70;;
70576;SDS011;58138;43.138;24.702;2022-08-01T12:55:19;1.17;;;1.00;;
70576;SDS011;58138;43.138;24.702;2022-08-01T12:57:49;2.15;;;0.70;;
70576;SDS011;58138;43.138;24.702;2022-08-01T13:00:17;0.88;;;0.80;;
70576;SDS011;58138;43.138;24.702;2022-08-01T13:02:43;1.17;;;1.00;;
70576;SDS011;58138;43.138;24.702;2022-08-01T13:05:10;0.95;;;0.95;;
70576;SDS011;58138;43.138;24.702;2022-08-01T13:07:43;3.67;;;1.15;;
70576;SDS011;58138;43.138;24.702;2022-08-01T13:10:09;3.80;;;1.20;;
70576;SDS011;58138;43.138;24.702;2022-08-01T13:12:36;1.70;;;0.95;;
70576;SDS011;58138;43.138;24.702;2022-08-01T13:15:22;4.63;;;0.90;;
70576;SDS011;58138;43.138;24.702;2022-08-01T13:17:49;2.95;;;0.63;;
70576;SDS011;58138;43.138;24.702;2022-08-01T13:20:22;0.70;;;0.70;;
70576;SDS011;58138;43.138;24.702;2022-08-01T13:22:48;0.75;;;0.70;;
70576;SDS011;58138;43.138;24.702;2022-08-01T13:25:16;2.15;;;0.90;;
70576;SDS011;58138;43.138;24.702;2022-08-01T13:27:42;4.65;;;0.60;;
70576;SDS011;58138;43.138;24.702;2022-08-01T13:30:17;0.80;;;0.75;;
70576;SDS011;58138;43.138;24.702;2022-08-01T13:32:56;0.77;;;0.55;;
70576;SDS011;58138;43.138;24.702;2022-08-01T13:35:25;3.10;;;0.70;;
70576;SDS011;58138;43.138;24.702;2022-08-01T13:37:51;0.60;;;0.60;;
70576;SDS011;58138;43.138;24.702;2022-08-01T13:40:23;1.00;;;0.60;;
70576;SDS011;58138;43.138;24.702;2022-08-01T13:42:50;1.73;;;0.98;;
70576;SDS011;58138;43.138;24.702;2022-08-01T13:45:16;2.95;;;1.02;;
70576;SDS011;58138;43.138;24.702;2022-08-01T13:47:42;1.27;;;0.60;;
70576;SDS011;58138;43.138;24.702;2022-08-01T13:50:08;0.50;;;0.47;;
70576;SDS011;58138;43.138;24.702;2022-08-01T13:52:34;0.68;;;0.68;;
70576;SDS011;58138;43.138;24.702;2022-08-01T13:54:59;0.85;;;0.55;;
70576;SDS011;58138;43.138;24.702;2022-08-01T13:57:26;1.13;;;0.60;;
70576;SDS011;58138;43.138;24.702;2022-08-01T13:59:52;1.33;;;1.02;;
70576;SDS011;58138;43.138;24.702;2022-08-01T14:02:17;1.08;;;0.70;;
70576;SDS011;58138;43.138;24.702;2022-08-01T14:04:43;0.47;;;0.47;;
70576;SDS011;58138;43.138;24.702;2022-08-01T14:07:08;2.58;;;0.60;;
70576;SDS011;58138;43.138;24.702;2022-08-01T14:09:34;1.08;;;0.98;;
70576;SDS011;58138;43.138;24.702;2022-08-01T14:12:00;2.97;;;1.70;;
70576;SDS011;58138;43.138;24.702;2022-08-01T14:14:25;1.27;;;1.13;;
70576;SDS011;58138;43.138;24.702;2022-08-01T14:16:51;1.00;;;0.75;;
70576;SDS011;58138;43.138;24.702;2022-08-01T14:19:16;1.95;;;1.50;;
70576;SDS011;58138;43.138;24.702;2022-08-01T14:21:42;2.15;;;0.90;;
70576;SDS011;58138;43.138;24.702;2022-08-01T14:24:08;3.53;;;1.83;;
70576;SDS011;58138;43.138;24.702;2022-08-01T14:26:34;0.70;;;0.70;;
70576;SDS011;58138;43.138;24.702;2022-08-01T14:29:00;4.07;;;0.85;;
70576;SDS011;58138;43.138;24.702;2022-08-01T14:31:25;2.70;;;0.70;;
70576;SDS011;58138;43.138;24.702;2022-08-01T14:33:51;2.90;;;0.80;;
70576;SDS011;58138;43.138;24.702;2022-08-01T14:36:17;2.25;;;0.55;;
70576;SDS011;58138;43.138;24.702;2022-08-01T14:38:42;1.85;;;0.70;;
70576;SDS011;58138;43.138;24.702;2022-08-01T14:41:08;1.05;;;0.57;;
70576;SDS011;58138;43.138;24.702;2022-08-01T14:43:34;1.02;;;0.70;;
70576;SDS011;58138;43.138;24.702;2022-08-01T14:46:00;2.45;;;0.98;;
70576;SDS011;58138;43.138;24.702;2022-08-01T14:48:26;1.25;;;1.08;;
70576;SDS011;58138;43.138;24.702;2022-08-01T14:50:51;1.42;;;0.70;;
70576;SDS011;58138;43.138;24.702;2022-08-01T14:53:17;2.08;;;1.10;;
70576;SDS011;58138;43.138;24.702;2022-08-01T14:55:43;1.00;;;0.70;;
70576;SDS011;58138;43.138;24.702;2022-08-01T14:58:08;2.25;;;0.82;;
70576;SDS011;58138;43.138;24.702;2022-08-01T15:00:34;1.75;;;0.80;;
70576;SDS011;58138;43.138;24.702;2022-08-01T15:02:59;0.55;;;0.55;;
70576;SDS011;58138;43.138;24.702;2022-08-01T15:05:25;1.23;;;0.95;;
70576;SDS011;58138;43.138;24.702;2022-08-01T15:07:51;2.15;;;0.80;;
70576;SDS011;58138;43.138;24.702;2022-08-01T15:10:16;0.70;;;0.70;;
70576;SDS011;58138;43.138;24.702;2022-08-01T15:12:42;2.60;;;0.90;;
70576;SDS011;58138;43.138;24.702;2022-08-01T15:15:08;1.58;;;1.13;;
70576;SDS011;58138;43.138;24.702;2022-08-01T15:17:34;0.60;;;0.60;;